Japan Airlines Virtual Airport Information Service

Xiamen Gaoqi International Airport

ICAO: ZSAM Country: China
Latitude: 24.544 Longitude: 118.128
Latest Arrival : CAL020 (RCKH-ZSAM) Latest Departure : CXA4407 (ZSAM-ZGGG)


WX CaptureLIVE
Data provided by noaa.gov | Fetched at 15:16:07

METAR : ZSAM 231500Z 05005MPS 9999 BKN050 24/17 Q1011 NOSIG

TAF : ZSAM 230905Z 2312/2412 05003G08MPS 6000 SCT030 TX31/2406Z TN21/2321Z BECMG 2405/2406 12005G10MPS


Runway Data for ZSAM
Data provided by openaviationdata.com

Runway ID Mag Var Hdg Length Elevation Surface ILS Freq ILS Id ILS Slope
5 -2 54° 11163 ft 23 ft Asphalt 110.3 IWF 3
23 -2 234° 11163 ft 23 ft Asphalt 109.7 IKK 3

Xiamen Gaoqi International Airport, China
Use only for reference purposes



Not for navigational purposes.